Nearby METAR Reports

 

KHVN - New Haven/Tweed, Connecticut, USA
Distance from station: S 9mi, 14km
Updated: 12/11/2018 1:53pm
Few Clouds
Few Clouds
 Wind from S
Wind: S 8 mph , 13 km/h
Temperature: 37°F , 3°C
Wind Chill: 31°F , -1°C
Dew Point: 25°F , -4°C
Humidity: 60%
Barometer: 30.03 inHg , 1016.9 hPa
Clouds: Few Clouds
Visibility: 10 miles , 16 km
Cloud details: Few Clouds 3500 ft
2018/12/11 18:53 KHVN 111853Z 17007KT 10SM FEW035 03/M04 A3003
KMMK - Meriden, Connecticut, USA
Distance from station: N 9mi, 14km
Updated: 12/11/2018 1:53pm
Clear
Clear
 Wind from calm
Wind: Calm
Temperature: 37°F , 3°C
Dew Point: 18°F , -8°C
Humidity: 45%
Barometer: 30.01 inHg , 1016.3 hPa
Clouds: Clear
Visibility: 10 miles , 16 km
2018/12/11 18:53 KMMK 111853Z AUTO 00000KT 10SM CLR 03/M08 A3001 RMK AO2 SLP164 T00331078
 
KOXC - Oxford/Waterbury, Connecticut, USA
Distance from station: WNW 15mi, 24km
Updated: 12/11/2018 1:51pm
Clear
Clear
 Wind from WSW
Wind: WSW 6 mph , 9 km/h
Temperature: 36°F , 2°C
Wind Chill: 31°F , -1°C
Dew Point: 19°F , -7°C
Humidity: 52%
Barometer: 29.98 inHg , 1015.2 hPa
Clouds: Clear
Visibility: 10 miles , 16 km
2018/12/11 18:51 KOXC 111851Z 24005KT 10SM CLR 02/M07 A2998 RMK AO2 SLP174 T00221072
KSNC - Chester, Connecticut, USA
Distance from station: E 19mi, 30km
Updated: 12/11/2018 2:35pm
Partly cloudy
Partly cloudy
 Wind from SSW
Wind: SSW 6 mph , 9 km/h
Temperature: 37°F , 3°C
Wind Chill: 32°F , 0°C
Dew Point: 25°F , -4°C
Humidity: 60%
Barometer: 29.99 inHg , 1015.6 hPa
Clouds: Partly cloudy
Visibility: 10 miles , 16 km
Cloud details: Partly cloudy 3400 ft
2018/12/11 19:35 KSNC 111935Z AUTO 21005KT 10SM SCT034 03/M04 A2999 RMK AO2
 
KBDR - Bridgeport, Connecticut, USA
Distance from station: SW 21mi, 34km
Updated: 12/11/2018 1:52pm
Clear
Clear
 Wind from varies
Wind: varies 3 mph , 6 km/h
Temperature: 37°F , 3°C
Dew Point: 25°F , -4°C
Humidity: 60%
Barometer: 30.03 inHg , 1016.9 hPa
Clouds: Clear
Visibility: 10 miles , 16 km
2018/12/11 18:52 KBDR 111852Z VRB03KT 10SM CLR 03/M04 A3003 RMK AO2 SLP167 T00331039
KHFD - Hartford/Brainard, Connecticut, USA
Distance from station: NNE 26mi, 42km
Updated: 12/11/2018 1:53pm
Clear
Clear
 Wind from SE
Wind: SE 3 mph , 6 km/h
Temperature: 37°F , 3°C
Dew Point: 18°F , -8°C
Humidity: 45%
Barometer: 30.01 inHg , 1016.3 hPa
Clouds: Clear
Visibility: 10 miles , 16 km
2018/12/11 18:53 KHFD 111853Z 14003KT 10SM CLR 03/M08 A3001 RMK AO2 SLP163 T00281078
 
KDXR - Danbury, Connecticut, USA
Distance from station: W 32mi, 52km
Updated: 12/11/2018 1:53pm
Clear
Clear
 Wind from SSW
Wind: SSW 10 mph , 17 km/h
Temperature: 37°F , 3°C
Wind Chill: 30°F , -1°C
Dew Point: 18°F , -8°C
Humidity: 45%
Barometer: 29.99 inHg , 1015.6 hPa
Clouds: Clear
Visibility: 10 miles , 16 km
2018/12/11 18:53 KDXR 111853Z 20009KT 10SM CLR 03/M08 A2999 RMK AO2 SLP160 T00281078
KBDL - Windsor Locks, Connecticut, USA
Distance from station: NNE 39mi, 62km
Updated: 12/11/2018 1:51pm
Few Clouds
Few Clouds
 Wind from SSE
Wind: SSE 5 mph , 7 km/h
Temperature: 36°F , 2°C
Wind Chill: 32°F , 0°C
Dew Point: 18°F , -8°C
Humidity: 48%
Barometer: 30.00 inHg , 1015.9 hPa
Clouds: Few Clouds
Visibility: 10 miles , 16 km
Cloud details: Few Clouds 3500 ft
Few Clouds 25000 ft
2018/12/11 18:51 KBDL 111851Z 16004KT 10SM FEW035 FEW250 02/M08 A3000 RMK AO2 SLP161 T00171083